sensor_id;sensor_type;location;lat;lon;timestamp;P1;durP1;ratioP1;P2;durP2;ratioP2
20290;SDS011;10304;51.074;13.754;2024-02-16T00:00:27;20.92;;;17.25;;
20290;SDS011;10304;51.074;13.754;2024-02-16T00:02:54;22.67;;;17.27;;
20290;SDS011;10304;51.074;13.754;2024-02-16T00:05:20;23.73;;;17.83;;
20290;SDS011;10304;51.074;13.754;2024-02-16T00:07:48;21.42;;;15.43;;
20290;SDS011;10304;51.074;13.754;2024-02-16T00:10:15;20.70;;;16.27;;
20290;SDS011;10304;51.074;13.754;2024-02-16T00:12:44;24.40;;;17.50;;
20290;SDS011;10304;51.074;13.754;2024-02-16T00:15:11;25.42;;;18.67;;
20290;SDS011;10304;51.074;13.754;2024-02-16T00:17:39;24.80;;;18.83;;
20290;SDS011;10304;51.074;13.754;2024-02-16T00:20:05;24.25;;;17.60;;
20290;SDS011;10304;51.074;13.754;2024-02-16T00:22:33;20.88;;;16.15;;
20290;SDS011;10304;51.074;13.754;2024-02-16T00:25:00;22.42;;;16.65;;
20290;SDS011;10304;51.074;13.754;2024-02-16T00:27:29;21.05;;;18.00;;
20290;SDS011;10304;51.074;13.754;2024-02-16T00:29:56;19.23;;;15.55;;
20290;SDS011;10304;51.074;13.754;2024-02-16T00:32:23;19.15;;;13.43;;
20290;SDS011;10304;51.074;13.754;2024-02-16T00:34:52;16.35;;;12.73;;
20290;SDS011;10304;51.074;13.754;2024-02-16T00:37:20;15.00;;;11.00;;
20290;SDS011;10304;51.074;13.754;2024-02-16T00:39:47;15.38;;;9.52;;
20290;SDS011;10304;51.074;13.754;2024-02-16T00:42:14;15.07;;;9.48;;
20290;SDS011;10304;51.074;13.754;2024-02-16T00:44:41;12.40;;;8.48;;
20290;SDS011;10304;51.074;13.754;2024-02-16T00:47:07;14.25;;;8.82;;
20290;SDS011;10304;51.074;13.754;2024-02-16T00:49:36;10.27;;;7.75;;
20290;SDS011;10304;51.074;13.754;2024-02-16T00:52:03;12.10;;;8.50;;
20290;SDS011;10304;51.074;13.754;2024-02-16T00:54:31;12.73;;;8.13;;
20290;SDS011;10304;51.074;13.754;2024-02-16T00:56:57;13.07;;;7.88;;
20290;SDS011;10304;51.074;13.754;2024-02-16T00:59:29;12.50;;;8.13;;
20290;SDS011;10304;51.074;13.754;2024-02-16T01:01:56;11.77;;;8.27;;
20290;SDS011;10304;51.074;13.754;2024-02-16T01:04:22;10.43;;;7.93;;
20290;SDS011;10304;51.074;13.754;2024-02-16T01:06:50;10.73;;;7.75;;
20290;SDS011;10304;51.074;13.754;2024-02-16T01:09:16;12.55;;;7.97;;
20290;SDS011;10304;51.074;13.754;2024-02-16T01:11:43;11.32;;;8.07;;
20290;SDS011;10304;51.074;13.754;2024-02-16T01:14:10;9.90;;;7.05;;
20290;SDS011;10304;51.074;13.754;2024-02-16T01:16:37;12.00;;;7.78;;
20290;SDS011;10304;51.074;13.754;2024-02-16T01:19:04;11.15;;;8.02;;
20290;SDS011;10304;51.074;13.754;2024-02-16T01:21:33;10.90;;;7.82;;
20290;SDS011;10304;51.074;13.754;2024-02-16T01:23:59;12.38;;;8.07;;
20290;SDS011;10304;51.074;13.754;2024-02-16T01:26:27;10.50;;;7.93;;
20290;SDS011;10304;51.074;13.754;2024-02-16T01:28:54;11.63;;;8.23;;
20290;SDS011;10304;51.074;13.754;2024-02-16T01:31:21;12.13;;;8.85;;
20290;SDS011;10304;51.074;13.754;2024-02-16T01:33:48;12.07;;;8.60;;
20290;SDS011;10304;51.074;13.754;2024-02-16T01:36:15;13.95;;;9.48;;
20290;SDS011;10304;51.074;13.754;2024-02-16T01:38:42;14.68;;;9.57;;
20290;SDS011;10304;51.074;13.754;2024-02-16T01:41:08;17.20;;;11.02;;
20290;SDS011;10304;51.074;13.754;2024-02-16T01:43:35;14.27;;;10.73;;
20290;SDS011;10304;51.074;13.754;2024-02-16T01:46:02;14.25;;;10.15;;
20290;SDS011;10304;51.074;13.754;2024-02-16T01:48:29;15.27;;;10.30;;
20290;SDS011;10304;51.074;13.754;2024-02-16T01:50:56;18.42;;;11.38;;
20290;SDS011;10304;51.074;13.754;2024-02-16T01:53:25;15.60;;;10.70;;
20290;SDS011;10304;51.074;13.754;2024-02-16T01:55:51;15.75;;;10.85;;
20290;SDS011;10304;51.074;13.754;2024-02-16T01:58:18;17.27;;;11.07;;
20290;SDS011;10304;51.074;13.754;2024-02-16T02:00:45;17.05;;;10.95;;
20290;SDS011;10304;51.074;13.754;2024-02-16T02:03:12;13.98;;;10.52;;
20290;SDS011;10304;51.074;13.754;2024-02-16T02:05:43;18.55;;;11.48;;
20290;SDS011;10304;51.074;13.754;2024-02-16T02:08:12;15.23;;;10.35;;
20290;SDS011;10304;51.074;13.754;2024-02-16T02:10:40;16.00;;;11.02;;
20290;SDS011;10304;51.074;13.754;2024-02-16T02:13:06;18.20;;;10.98;;
20290;SDS011;10304;51.074;13.754;2024-02-16T02:15:33;13.82;;;9.80;;
20290;SDS011;10304;51.074;13.754;2024-02-16T02:18:04;14.05;;;10.55;;
20290;SDS011;10304;51.074;13.754;2024-02-16T02:20:31;17.13;;;11.18;;
20290;SDS011;10304;51.074;13.754;2024-02-16T02:22:58;14.38;;;11.02;;
20290;SDS011;10304;51.074;13.754;2024-02-16T02:25:25;16.13;;;11.35;;
20290;SDS011;10304;51.074;13.754;2024-02-16T02:27:55;15.40;;;11.55;;
20290;SDS011;10304;51.074;13.754;2024-02-16T02:30:22;15.48;;;10.82;;
20290;SDS011;10304;51.074;13.754;2024-02-16T02:32:52;15.70;;;11.32;;
20290;SDS011;10304;51.074;13.754;2024-02-16T02:35:19;15.10;;;10.85;;
20290;SDS011;10304;51.074;13.754;2024-02-16T02:37:45;17.40;;;11.20;;
20290;SDS011;10304;51.074;13.754;2024-02-16T02:40:12;15.25;;;11.48;;
20290;SDS011;10304;51.074;13.754;2024-02-16T02:42:39;16.60;;;11.60;;
20290;SDS011;10304;51.074;13.754;2024-02-16T02:45:06;17.23;;;11.40;;
20290;SDS011;10304;51.074;13.754;2024-02-16T02:47:33;16.88;;;12.18;;
20290;SDS011;10304;51.074;13.754;2024-02-16T02:50:00;15.43;;;11.65;;
20290;SDS011;10304;51.074;13.754;2024-02-16T02:52:27;16.25;;;11.15;;
20290;SDS011;10304;51.074;13.754;2024-02-16T02:54:54;15.02;;;11.35;;
20290;SDS011;10304;51.074;13.754;2024-02-16T02:57:20;15.73;;;12.27;;
20290;SDS011;10304;51.074;13.754;2024-02-16T02:59:47;15.07;;;11.07;;
20290;SDS011;10304;51.074;13.754;2024-02-16T03:02:15;17.38;;;11.90;;
20290;SDS011;10304;51.074;13.754;2024-02-16T03:04:42;15.95;;;11.48;;
20290;SDS011;10304;51.074;13.754;2024-02-16T03:07:09;17.48;;;11.85;;
20290;SDS011;10304;51.074;13.754;2024-02-16T03:09:36;14.77;;;10.85;;
20290;SDS011;10304;51.074;13.754;2024-02-16T03:12:03;16.05;;;11.90;;
20290;SDS011;10304;51.074;13.754;2024-02-16T03:14:30;16.95;;;12.45;;
20290;SDS011;10304;51.074;13.754;2024-02-16T03:16:57;18.40;;;12.15;;
20290;SDS011;10304;51.074;13.754;2024-02-16T03:19:24;16.27;;;12.52;;
20290;SDS011;10304;51.074;13.754;2024-02-16T03:21:51;16.63;;;12.02;;
20290;SDS011;10304;51.074;13.754;2024-02-16T03:24:18;15.70;;;12.50;;
20290;SDS011;10304;51.074;13.754;2024-02-16T03:26:45;18.10;;;12.75;;
20290;SDS011;10304;51.074;13.754;2024-02-16T03:29:13;13.77;;;11.50;;
20290;SDS011;10304;51.074;13.754;2024-02-16T03:31:40;16.88;;;12.38;;
20290;SDS011;10304;51.074;13.754;2024-02-16T03:34:06;16.27;;;11.98;;
20290;SDS011;10304;51.074;13.754;2024-02-16T03:36:33;16.05;;;12.60;;
20290;SDS011;10304;51.074;13.754;2024-02-16T03:39:00;17.52;;;12.35;;
20290;SDS011;10304;51.074;13.754;2024-02-16T03:41:27;18.33;;;12.82;;
20290;SDS011;10304;51.074;13.754;2024-02-16T03:43:54;17.83;;;12.98;;
20290;SDS011;10304;51.074;13.754;2024-02-16T03:46:21;16.63;;;13.23;;
20290;SDS011;10304;51.074;13.754;2024-02-16T03:48:47;20.25;;;13.52;;
20290;SDS011;10304;51.074;13.754;2024-02-16T03:51:14;19.67;;;13.30;;
20290;SDS011;10304;51.074;13.754;2024-02-16T03:53:41;17.45;;;14.07;;
20290;SDS011;10304;51.074;13.754;2024-02-16T03:56:08;17.83;;;14.48;;
20290;SDS011;10304;51.074;13.754;2024-02-16T03:58:35;19.75;;;14.63;;
20290;SDS011;10304;51.074;13.754;2024-02-16T04:01:03;18.08;;;14.45;;
20290;SDS011;10304;51.074;13.754;2024-02-16T04:03:33;20.77;;;14.73;;
20290;SDS011;10304;51.074;13.754;2024-02-16T04:06:00;20.20;;;15.27;;
20290;SDS011;10304;51.074;13.754;2024-02-16T04:08:27;20.58;;;14.82;;
20290;SDS011;10304;51.074;13.754;2024-02-16T04:10:54;18.00;;;15.18;;
20290;SDS011;10304;51.074;13.754;2024-02-16T04:13:21;19.30;;;14.32;;
20290;SDS011;10304;51.074;13.754;2024-02-16T04:15:48;22.63;;;16.48;;
20290;SDS011;10304;51.074;13.754;2024-02-16T04:18:20;21.73;;;15.88;;
20290;SDS011;10304;51.074;13.754;2024-02-16T04:20:47;21.63;;;15.63;;
20290;SDS011;10304;51.074;13.754;2024-02-16T04:23:14;21.42;;;15.82;;
20290;SDS011;10304;51.074;13.754;2024-02-16T04:25:41;19.45;;;15.57;;
20290;SDS011;10304;51.074;13.754;2024-02-16T04:28:07;23.40;;;17.08;;
20290;SDS011;10304;51.074;13.754;2024-02-16T04:30:34;20.70;;;16.90;;
20290;SDS011;10304;51.074;13.754;2024-02-16T04:33:01;19.73;;;15.60;;
20290;SDS011;10304;51.074;13.754;2024-02-16T04:35:28;21.17;;;16.75;;
20290;SDS011;10304;51.074;13.754;2024-02-16T04:37:55;22.10;;;16.77;;
20290;SDS011;10304;51.074;13.754;2024-02-16T04:40:22;19.88;;;16.25;;
20290;SDS011;10304;51.074;13.754;2024-02-16T04:42:48;21.92;;;16.52;;
20290;SDS011;10304;51.074;13.754;2024-02-16T04:45:15;20.20;;;16.30;;
20290;SDS011;10304;51.074;13.754;2024-02-16T04:47:42;21.70;;;16.70;;
20290;SDS011;10304;51.074;13.754;2024-02-16T04:50:09;21.98;;;16.15;;
20290;SDS011;10304;51.074;13.754;2024-02-16T04:52:37;21.25;;;16.45;;
20290;SDS011;10304;51.074;13.754;2024-02-16T04:55:06;20.77;;;16.58;;
20290;SDS011;10304;51.074;13.754;2024-02-16T04:57:33;21.10;;;17.13;;
20290;SDS011;10304;51.074;13.754;2024-02-16T05:00:00;24.23;;;16.65;;
20290;SDS011;10304;51.074;13.754;2024-02-16T05:02:27;19.70;;;15.77;;
20290;SDS011;10304;51.074;13.754;2024-02-16T05:04:54;20.02;;;16.00;;
20290;SDS011;10304;51.074;13.754;2024-02-16T05:07:21;21.48;;;16.83;;
20290;SDS011;10304;51.074;13.754;2024-02-16T05:09:48;21.23;;;16.17;;
20290;SDS011;10304;51.074;13.754;2024-02-16T05:12:16;19.95;;;15.57;;
20290;SDS011;10304;51.074;13.754;2024-02-16T05:14:47;20.60;;;17.02;;
20290;SDS011;10304;51.074;13.754;2024-02-16T05:17:15;23.25;;;17.17;;
20290;SDS011;10304;51.074;13.754;2024-02-16T05:19:42;21.35;;;17.30;;
20290;SDS011;10304;51.074;13.754;2024-02-16T05:22:09;20.92;;;16.67;;
20290;SDS011;10304;51.074;13.754;2024-02-16T05:24:36;21.15;;;16.60;;
20290;SDS011;10304;51.074;13.754;2024-02-16T05:27:03;21.23;;;16.55;;
20290;SDS011;10304;51.074;13.754;2024-02-16T05:29:30;20.25;;;16.48;;
20290;SDS011;10304;51.074;13.754;2024-02-16T05:31:57;20.48;;;16.38;;
20290;SDS011;10304;51.074;13.754;2024-02-16T05:34:23;24.92;;;17.02;;
20290;SDS011;10304;51.074;13.754;2024-02-16T05:36:51;21.15;;;16.75;;
20290;SDS011;10304;51.074;13.754;2024-02-16T05:39:18;21.73;;;16.77;;
20290;SDS011;10304;51.074;13.754;2024-02-16T05:41:53;21.48;;;17.15;;
20290;SDS011;10304;51.074;13.754;2024-02-16T05:44:20;21.52;;;16.88;;
20290;SDS011;10304;51.074;13.754;2024-02-16T05:46:47;24.83;;;16.73;;
20290;SDS011;10304;51.074;13.754;2024-02-16T05:49:14;20.50;;;16.02;;
20290;SDS011;10304;51.074;13.754;2024-02-16T05:51:45;21.15;;;16.27;;
20290;SDS011;10304;51.074;13.754;2024-02-16T05:54:31;22.83;;;17.48;;
20290;SDS011;10304;51.074;13.754;2024-02-16T05:57:03;22.95;;;17.25;;
20290;SDS011;10304;51.074;13.754;2024-02-16T05:59:30;21.42;;;17.20;;
20290;SDS011;10304;51.074;13.754;2024-02-16T06:01:57;23.80;;;17.63;;
20290;SDS011;10304;51.074;13.754;2024-02-16T06:04:24;22.33;;;17.58;;
20290;SDS011;10304;51.074;13.754;2024-02-16T06:06:54;23.48;;;17.52;;
20290;SDS011;10304;51.074;13.754;2024-02-16T06:09:20;21.80;;;16.73;;
20290;SDS011;10304;51.074;13.754;2024-02-16T06:11:47;20.20;;;17.40;;
20290;SDS011;10304;51.074;13.754;2024-02-16T06:14:15;19.70;;;16.50;;
20290;SDS011;10304;51.074;13.754;2024-02-16T06:17:01;23.42;;;17.33;;
20290;SDS011;10304;51.074;13.754;2024-02-16T06:19:28;23.15;;;17.85;;
20290;SDS011;10304;51.074;13.754;2024-02-16T06:21:55;21.38;;;17.33;;
20290;SDS011;10304;51.074;13.754;2024-02-16T06:24:26;24.00;;;18.13;;
20290;SDS011;10304;51.074;13.754;2024-02-16T06:26:53;22.60;;;17.52;;
20290;SDS011;10304;51.074;13.754;2024-02-16T06:29:23;24.05;;;17.65;;
20290;SDS011;10304;51.074;13.754;2024-02-16T06:31:50;24.02;;;18.17;;
20290;SDS011;10304;51.074;13.754;2024-02-16T06:34:18;21.80;;;17.38;;
20290;SDS011;10304;51.074;13.754;2024-02-16T06:36:46;23.13;;;18.02;;
20290;SDS011;10304;51.074;13.754;2024-02-16T06:39:12;26.55;;;18.70;;
20290;SDS011;10304;51.074;13.754;2024-02-16T06:41:43;24.23;;;17.73;;
20290;SDS011;10304;51.074;13.754;2024-02-16T06:44:12;22.70;;;18.23;;
20290;SDS011;10304;51.074;13.754;2024-02-16T06:46:39;24.17;;;17.48;;
20290;SDS011;10304;51.074;13.754;2024-02-16T06:49:06;23.48;;;17.88;;
20290;SDS011;10304;51.074;13.754;2024-02-16T06:51:33;23.17;;;18.25;;
20290;SDS011;10304;51.074;13.754;2024-02-16T06:54:00;23.13;;;18.23;;
20290;SDS011;10304;51.074;13.754;2024-02-16T06:56:28;24.23;;;18.30;;
20290;SDS011;10304;51.074;13.754;2024-02-16T06:58:56;23.13;;;18.38;;
20290;SDS011;10304;51.074;13.754;2024-02-16T07:01:23;24.92;;;18.35;;
20290;SDS011;10304;51.074;13.754;2024-02-16T07:03:51;26.20;;;19.15;;
20290;SDS011;10304;51.074;13.754;2024-02-16T07:06:18;24.15;;;17.95;;
20290;SDS011;10304;51.074;13.754;2024-02-16T07:08:45;25.92;;;19.33;;
20290;SDS011;10304;51.074;13.754;2024-02-16T07:11:12;35.40;;;25.75;;
20290;SDS011;10304;51.074;13.754;2024-02-16T07:13:39;28.88;;;21.42;;
20290;SDS011;10304;51.074;13.754;2024-02-16T07:16:06;25.77;;;19.25;;
20290;SDS011;10304;51.074;13.754;2024-02-16T07:18:33;28.58;;;19.83;;
20290;SDS011;10304;51.074;13.754;2024-02-16T07:21:00;24.33;;;18.88;;
20290;SDS011;10304;51.074;13.754;2024-02-16T07:23:28;24.15;;;18.50;;
20290;SDS011;10304;51.074;13.754;2024-02-16T07:25:55;25.17;;;18.88;;
20290;SDS011;10304;51.074;13.754;2024-02-16T07:28:23;24.83;;;19.20;;
20290;SDS011;10304;51.074;13.754;2024-02-16T07:30:51;24.25;;;18.33;;
20290;SDS011;10304;51.074;13.754;2024-02-16T07:33:19;25.33;;;18.60;;
20290;SDS011;10304;51.074;13.754;2024-02-16T07:35:47;24.65;;;18.63;;
20290;SDS011;10304;51.074;13.754;2024-02-16T07:38:14;24.50;;;19.05;;
20290;SDS011;10304;51.074;13.754;2024-02-16T07:40:41;24.95;;;18.63;;
20290;SDS011;10304;51.074;13.754;2024-02-16T07:43:08;25.48;;;18.55;;
20290;SDS011;10304;51.074;13.754;2024-02-16T07:45:34;25.15;;;18.77;;
20290;SDS011;10304;51.074;13.754;2024-02-16T07:48:01;23.23;;;18.38;;
20290;SDS011;10304;51.074;13.754;2024-02-16T07:50:32;24.48;;;18.60;;
20290;SDS011;10304;51.074;13.754;2024-02-16T07:52:58;25.30;;;19.35;;
20290;SDS011;10304;51.074;13.754;2024-02-16T07:55:25;22.17;;;17.92;;
20290;SDS011;10304;51.074;13.754;2024-02-16T07:58:10;27.63;;;17.98;;
20290;SDS011;10304;51.074;13.754;2024-02-16T08:00:39;23.45;;;17.33;;
20290;SDS011;10304;51.074;13.754;2024-02-16T08:03:06;24.70;;;17.77;;
20290;SDS011;10304;51.074;13.754;2024-02-16T08:05:33;23.30;;;18.13;;
20290;SDS011;10304;51.074;13.754;2024-02-16T08:07:59;21.85;;;17.80;;
20290;SDS011;10304;51.074;13.754;2024-02-16T08:10:26;20.90;;;17.10;;
20290;SDS011;10304;51.074;13.754;2024-02-16T08:12:53;22.10;;;17.70;;
20290;SDS011;10304;51.074;13.754;2024-02-16T08:15:20;21.88;;;17.38;;
20290;SDS011;10304;51.074;13.754;2024-02-16T08:17:51;24.83;;;17.73;;
20290;SDS011;10304;51.074;13.754;2024-02-16T08:20:18;22.67;;;16.98;;
20290;SDS011;10304;51.074;13.754;2024-02-16T08:22:47;22.65;;;17.33;;
20290;SDS011;10304;51.074;13.754;2024-02-16T08:25:13;24.45;;;17.70;;
20290;SDS011;10304;51.074;13.754;2024-02-16T08:27:40;21.48;;;17.23;;
20290;SDS011;10304;51.074;13.754;2024-02-16T08:30:07;22.15;;;16.90;;
20290;SDS011;10304;51.074;13.754;2024-02-16T08:32:35;23.27;;;17.23;;
20290;SDS011;10304;51.074;13.754;2024-02-16T08:35:02;20.25;;;15.95;;
20290;SDS011;10304;51.074;13.754;2024-02-16T08:37:30;22.13;;;17.20;;
20290;SDS011;10304;51.074;13.754;2024-02-16T08:39:57;24.20;;;17.35;;
20290;SDS011;10304;51.074;13.754;2024-02-16T08:42:23;21.83;;;16.98;;
20290;SDS011;10304;51.074;13.754;2024-02-16T08:44:50;20.45;;;16.30;;
20290;SDS011;10304;51.074;13.754;2024-02-16T08:47:17;21.75;;;17.08;;
20290;SDS011;10304;51.074;13.754;2024-02-16T08:49:44;21.45;;;16.52;;
20290;SDS011;10304;51.074;13.754;2024-02-16T08:52:11;21.05;;;17.35;;
20290;SDS011;10304;51.074;13.754;2024-02-16T08:54:38;23.45;;;17.58;;
20290;SDS011;10304;51.074;13.754;2024-02-16T08:57:05;22.02;;;17.75;;
20290;SDS011;10304;51.074;13.754;2024-02-16T08:59:32;23.23;;;18.02;;
20290;SDS011;10304;51.074;13.754;2024-02-16T09:02:00;22.55;;;18.55;;
20290;SDS011;10304;51.074;13.754;2024-02-16T09:04:27;23.63;;;18.17;;
20290;SDS011;10304;51.074;13.754;2024-02-16T09:06:54;22.27;;;18.60;;
20290;SDS011;10304;51.074;13.754;2024-02-16T09:09:21;25.02;;;17.63;;
20290;SDS011;10304;51.074;13.754;2024-02-16T09:11:49;20.88;;;16.92;;
20290;SDS011;10304;51.074;13.754;2024-02-16T09:14:16;20.63;;;16.80;;
20290;SDS011;10304;51.074;13.754;2024-02-16T09:16:42;20.67;;;17.02;;
20290;SDS011;10304;51.074;13.754;2024-02-16T09:19:09;21.00;;;16.17;;
20290;SDS011;10304;51.074;13.754;2024-02-16T09:21:36;21.50;;;16.75;;
20290;SDS011;10304;51.074;13.754;2024-02-16T09:24:03;21.35;;;16.77;;
20290;SDS011;10304;51.074;13.754;2024-02-16T09:26:30;20.52;;;15.75;;
20290;SDS011;10304;51.074;13.754;2024-02-16T09:29:00;20.40;;;17.13;;
20290;SDS011;10304;51.074;13.754;2024-02-16T09:31:27;19.75;;;16.48;;
20290;SDS011;10304;51.074;13.754;2024-02-16T09:33:53;20.95;;;17.17;;
20290;SDS011;10304;51.074;13.754;2024-02-16T09:36:20;23.33;;;17.25;;
20290;SDS011;10304;51.074;13.754;2024-02-16T09:38:48;20.05;;;16.45;;
20290;SDS011;10304;51.074;13.754;2024-02-16T09:41:15;21.45;;;17.13;;
20290;SDS011;10304;51.074;13.754;2024-02-16T09:43:42;21.50;;;17.48;;
20290;SDS011;10304;51.074;13.754;2024-02-16T09:46:09;19.95;;;16.13;;
20290;SDS011;10304;51.074;13.754;2024-02-16T09:48:36;27.55;;;17.10;;
20290;SDS011;10304;51.074;13.754;2024-02-16T09:51:07;19.88;;;15.73;;
20290;SDS011;10304;51.074;13.754;2024-02-16T09:53:34;19.55;;;16.17;;
20290;SDS011;10304;51.074;13.754;2024-02-16T09:56:01;21.73;;;18.00;;
20290;SDS011;10304;51.074;13.754;2024-02-16T09:58:31;19.05;;;15.57;;
20290;SDS011;10304;51.074;13.754;2024-02-16T10:00:58;18.90;;;15.32;;
20290;SDS011;10304;51.074;13.754;2024-02-16T10:03:29;19.63;;;16.23;;
20290;SDS011;10304;51.074;13.754;2024-02-16T10:06:06;20.80;;;16.10;;
20290;SDS011;10304;51.074;13.754;2024-02-16T10:08:35;17.85;;;14.82;;
20290;SDS011;10304;51.074;13.754;2024-02-16T10:11:14;16.58;;;14.57;;
20290;SDS011;10304;51.074;13.754;2024-02-16T10:13:41;15.88;;;14.18;;
20290;SDS011;10304;51.074;13.754;2024-02-16T10:16:08;19.38;;;15.57;;
20290;SDS011;10304;51.074;13.754;2024-02-16T10:18:38;19.10;;;15.90;;
20290;SDS011;10304;51.074;13.754;2024-02-16T10:21:05;18.25;;;15.50;;
20290;SDS011;10304;51.074;13.754;2024-02-16T10:23:35;19.27;;;15.45;;
20290;SDS011;10304;51.074;13.754;2024-02-16T10:26:09;17.52;;;15.52;;
20290;SDS011;10304;51.074;13.754;2024-02-16T10:28:36;19.52;;;15.75;;
20290;SDS011;10304;51.074;13.754;2024-02-16T10:31:04;18.70;;;15.15;;
20290;SDS011;10304;51.074;13.754;2024-02-16T10:33:32;19.20;;;15.40;;
20290;SDS011;10304;51.074;13.754;2024-02-16T10:36:00;19.85;;;15.98;;
20290;SDS011;10304;51.074;13.754;2024-02-16T10:38:29;19.83;;;15.75;;
20290;SDS011;10304;51.074;13.754;2024-02-16T10:40:56;19.45;;;15.80;;
20290;SDS011;10304;51.074;13.754;2024-02-16T10:43:26;19.95;;;16.55;;
20290;SDS011;10304;51.074;13.754;2024-02-16T10:45:55;19.75;;;16.23;;
20290;SDS011;10304;51.074;13.754;2024-02-16T10:48:23;18.58;;;16.40;;
20290;SDS011;10304;51.074;13.754;2024-02-16T10:50:50;19.48;;;16.35;;
20290;SDS011;10304;51.074;13.754;2024-02-16T10:53:24;20.58;;;17.20;;
20290;SDS011;10304;51.074;13.754;2024-02-16T10:55:53;19.75;;;16.73;;
20290;SDS011;10304;51.074;13.754;2024-02-16T10:58:26;20.40;;;17.50;;
20290;SDS011;10304;51.074;13.754;2024-02-16T11:00:54;19.90;;;17.73;;
20290;SDS011;10304;51.074;13.754;2024-02-16T11:03:22;19.42;;;16.42;;
20290;SDS011;10304;51.074;13.754;2024-02-16T11:05:51;22.40;;;17.20;;
20290;SDS011;10304;51.074;13.754;2024-02-16T11:08:19;19.45;;;17.02;;
20290;SDS011;10304;51.074;13.754;2024-02-16T11:10:57;19.77;;;17.27;;
20290;SDS011;10304;51.074;13.754;2024-02-16T11:13:25;18.85;;;16.27;;
20290;SDS011;10304;51.074;13.754;2024-02-16T11:16:00;19.80;;;17.00;;
20290;SDS011;10304;51.074;13.754;2024-02-16T11:18:29;22.02;;;17.83;;
20290;SDS011;10304;51.074;13.754;2024-02-16T11:21:00;22.08;;;18.75;;
20290;SDS011;10304;51.074;13.754;2024-02-16T11:23:31;19.80;;;16.75;;
20290;SDS011;10304;51.074;13.754;2024-02-16T11:26:01;19.08;;;16.40;;
20290;SDS011;10304;51.074;13.754;2024-02-16T11:28:33;18.65;;;16.20;;
20290;SDS011;10304;51.074;13.754;2024-02-16T11:31:01;19.70;;;16.50;;
20290;SDS011;10304;51.074;13.754;2024-02-16T11:33:29;23.48;;;17.65;;
20290;SDS011;10304;51.074;13.754;2024-02-16T11:35:58;20.33;;;16.50;;
20290;SDS011;10304;51.074;13.754;2024-02-16T11:38:26;18.92;;;16.40;;
20290;SDS011;10304;51.074;13.754;2024-02-16T11:40:54;18.77;;;15.88;;
20290;SDS011;10304;51.074;13.754;2024-02-16T11:43:28;16.38;;;14.68;;
20290;SDS011;10304;51.074;13.754;2024-02-16T11:45:56;17.23;;;15.23;;
20290;SDS011;10304;51.074;13.754;2024-02-16T11:48:24;18.17;;;15.88;;
20290;SDS011;10304;51.074;13.754;2024-02-16T11:51:01;17.33;;;14.68;;
20290;SDS011;10304;51.074;13.754;2024-02-16T11:53:30;20.60;;;15.52;;
20290;SDS011;10304;51.074;13.754;2024-02-16T11:56:00;20.20;;;15.70;;
20290;SDS011;10304;51.074;13.754;2024-02-16T11:58:27;18.55;;;15.55;;
20290;SDS011;10304;51.074;13.754;2024-02-16T12:00:56;17.55;;;15.38;;
20290;SDS011;10304;51.074;13.754;2024-02-16T12:03:29;17.33;;;15.32;;
20290;SDS011;10304;51.074;13.754;2024-02-16T12:05:57;20.63;;;16.10;;
20290;SDS011;10304;51.074;13.754;2024-02-16T12:08:32;20.00;;;15.98;;
20290;SDS011;10304;51.074;13.754;2024-02-16T12:11:00;21.40;;;15.65;;
20290;SDS011;10304;51.074;13.754;2024-02-16T12:13:28;17.10;;;14.65;;
20290;SDS011;10304;51.074;13.754;2024-02-16T12:15:55;20.27;;;15.32;;
20290;SDS011;10304;51.074;13.754;2024-02-16T12:18:23;17.77;;;15.02;;
20290;SDS011;10304;51.074;13.754;2024-02-16T12:20:58;16.38;;;14.57;;
20290;SDS011;10304;51.074;13.754;2024-02-16T12:23:29;20.17;;;15.02;;
20290;SDS011;10304;51.074;13.754;2024-02-16T12:26:00;18.33;;;15.18;;
20290;SDS011;10304;51.074;13.754;2024-02-16T12:28:29;18.30;;;15.48;;
20290;SDS011;10304;51.074;13.754;2024-02-16T12:30:59;18.65;;;15.20;;
20290;SDS011;10304;51.074;13.754;2024-02-16T12:33:29;19.42;;;14.70;;
20290;SDS011;10304;51.074;13.754;2024-02-16T12:35:57;15.95;;;13.70;;
20290;SDS011;10304;51.074;13.754;2024-02-16T12:38:24;17.55;;;13.25;;
20290;SDS011;10304;51.074;13.754;2024-02-16T12:40:50;18.15;;;13.65;;
20290;SDS011;10304;51.074;13.754;2024-02-16T12:43:17;16.35;;;12.82;;
20290;SDS011;10304;51.074;13.754;2024-02-16T12:45:46;14.43;;;12.93;;
20290;SDS011;10304;51.074;13.754;2024-02-16T12:48:13;14.55;;;13.05;;
20290;SDS011;10304;51.074;13.754;2024-02-16T12:50:41;16.00;;;14.05;;
20290;SDS011;10304;51.074;13.754;2024-02-16T12:53:08;15.60;;;13.70;;
20290;SDS011;10304;51.074;13.754;2024-02-16T12:55:36;17.60;;;14.25;;
20290;SDS011;10304;51.074;13.754;2024-02-16T12:58:02;15.43;;;13.43;;
20290;SDS011;10304;51.074;13.754;2024-02-16T13:00:30;16.13;;;13.93;;
20290;SDS011;10304;51.074;13.754;2024-02-16T13:02:57;15.90;;;13.68;;
20290;SDS011;10304;51.074;13.754;2024-02-16T13:05:24;14.23;;;12.65;;
20290;SDS011;10304;51.074;13.754;2024-02-16T13:07:51;15.40;;;13.63;;
20290;SDS011;10304;51.074;13.754;2024-02-16T13:10:18;14.95;;;12.60;;
20290;SDS011;10304;51.074;13.754;2024-02-16T13:12:45;13.57;;;12.07;;
20290;SDS011;10304;51.074;13.754;2024-02-16T13:15:12;13.05;;;11.77;;
20290;SDS011;10304;51.074;13.754;2024-02-16T13:17:53;14.63;;;11.50;;
20290;SDS011;10304;51.074;13.754;2024-02-16T13:20:21;11.48;;;10.27;;
20290;SDS011;10304;51.074;13.754;2024-02-16T13:22:48;16.17;;;10.95;;
20290;SDS011;10304;51.074;13.754;2024-02-16T13:25:15;11.98;;;10.82;;
20290;SDS011;10304;51.074;13.754;2024-02-16T13:27:42;12.68;;;11.18;;
20290;SDS011;10304;51.074;13.754;2024-02-16T13:30:09;14.57;;;12.73;;
20290;SDS011;10304;51.074;13.754;2024-02-16T13:32:36;13.95;;;11.90;;
20290;SDS011;10304;51.074;13.754;2024-02-16T13:35:06;13.20;;;11.80;;
20290;SDS011;10304;51.074;13.754;2024-02-16T13:37:34;15.45;;;12.55;;
20290;SDS011;10304;51.074;13.754;2024-02-16T13:40:00;12.82;;;11.40;;
20290;SDS011;10304;51.074;13.754;2024-02-16T13:42:33;13.90;;;12.50;;
20290;SDS011;10304;51.074;13.754;2024-02-16T13:45:00;13.18;;;11.65;;
20290;SDS011;10304;51.074;13.754;2024-02-16T13:47:27;14.68;;;12.15;;
20290;SDS011;10304;51.074;13.754;2024-02-16T13:49:54;14.45;;;12.45;;
20290;SDS011;10304;51.074;13.754;2024-02-16T13:52:24;15.00;;;12.25;;
20290;SDS011;10304;51.074;13.754;2024-02-16T13:54:51;15.95;;;12.65;;
20290;SDS011;10304;51.074;13.754;2024-02-16T13:57:18;19.15;;;13.18;;
20290;SDS011;10304;51.074;13.754;2024-02-16T13:59:45;19.23;;;12.90;;
20290;SDS011;10304;51.074;13.754;2024-02-16T14:02:12;15.88;;;13.68;;
20290;SDS011;10304;51.074;13.754;2024-02-16T14:04:39;17.67;;;13.85;;
20290;SDS011;10304;51.074;13.754;2024-02-16T14:07:07;20.48;;;13.65;;
20290;SDS011;10304;51.074;13.754;2024-02-16T14:09:35;16.38;;;13.68;;
20290;SDS011;10304;51.074;13.754;2024-02-16T14:12:03;15.20;;;12.60;;
20290;SDS011;10304;51.074;13.754;2024-02-16T14:14:30;16.80;;;14.18;;